sensor_id;sensor_type;location;lat;lon;timestamp;P1;durP1;ratioP1;P2;durP2;ratioP2
20397;SDS011;10358;49.590;11.030;2023-11-21T00:01:56;5.73;;;1.33;;
20397;SDS011;10358;49.590;11.030;2023-11-21T00:04:22;3.47;;;1.17;;
20397;SDS011;10358;49.590;11.030;2023-11-21T00:06:48;7.07;;;1.63;;
20397;SDS011;10358;49.590;11.030;2023-11-21T00:09:14;6.07;;;1.47;;
20397;SDS011;10358;49.590;11.030;2023-11-21T00:11:43;3.57;;;1.37;;
20397;SDS011;10358;49.590;11.030;2023-11-21T00:14:09;5.47;;;1.57;;
20397;SDS011;10358;49.590;11.030;2023-11-21T00:16:35;4.13;;;1.30;;
20397;SDS011;10358;49.590;11.030;2023-11-21T00:19:01;7.53;;;1.40;;
20397;SDS011;10358;49.590;11.030;2023-11-21T00:21:27;7.30;;;1.53;;
20397;SDS011;10358;49.590;11.030;2023-11-21T00:23:52;4.00;;;1.20;;
20397;SDS011;10358;49.590;11.030;2023-11-21T00:26:18;4.70;;;1.27;;
20397;SDS011;10358;49.590;11.030;2023-11-21T00:28:43;2.70;;;1.03;;
20397;SDS011;10358;49.590;11.030;2023-11-21T00:31:10;4.60;;;1.27;;
20397;SDS011;10358;49.590;11.030;2023-11-21T00:33:35;5.30;;;1.30;;
20397;SDS011;10358;49.590;11.030;2023-11-21T00:36:01;5.50;;;1.20;;
20397;SDS011;10358;49.590;11.030;2023-11-21T00:38:27;4.60;;;1.20;;
20397;SDS011;10358;49.590;11.030;2023-11-21T00:40:52;3.83;;;1.30;;
20397;SDS011;10358;49.590;11.030;2023-11-21T00:43:21;3.00;;;1.40;;
20397;SDS011;10358;49.590;11.030;2023-11-21T00:45:50;6.63;;;1.20;;
20397;SDS011;10358;49.590;11.030;2023-11-21T00:48:16;2.97;;;1.30;;
20397;SDS011;10358;49.590;11.030;2023-11-21T00:50:43;5.70;;;1.23;;
20397;SDS011;10358;49.590;11.030;2023-11-21T00:53:08;4.90;;;1.20;;
20397;SDS011;10358;49.590;11.030;2023-11-21T00:55:34;6.13;;;1.10;;
20397;SDS011;10358;49.590;11.030;2023-11-21T00:58:00;6.13;;;1.10;;
20397;SDS011;10358;49.590;11.030;2023-11-21T01:00:28;5.53;;;1.20;;
20397;SDS011;10358;49.590;11.030;2023-11-21T01:02:54;4.10;;;1.00;;
20397;SDS011;10358;49.590;11.030;2023-11-21T01:05:20;4.27;;;1.20;;
20397;SDS011;10358;49.590;11.030;2023-11-21T01:07:45;6.20;;;1.30;;
20397;SDS011;10358;49.590;11.030;2023-11-21T01:10:11;4.27;;;1.20;;
20397;SDS011;10358;49.590;11.030;2023-11-21T01:12:37;3.10;;;1.17;;
20397;SDS011;10358;49.590;11.030;2023-11-21T01:15:04;2.50;;;1.20;;
20397;SDS011;10358;49.590;11.030;2023-11-21T01:17:34;3.23;;;1.30;;
20397;SDS011;10358;49.590;11.030;2023-11-21T01:20:00;4.53;;;1.30;;
20397;SDS011;10358;49.590;11.030;2023-11-21T01:22:26;1.37;;;1.00;;
20397;SDS011;10358;49.590;11.030;2023-11-21T01:24:53;5.47;;;1.20;;
20397;SDS011;10358;49.590;11.030;2023-11-21T01:27:18;5.23;;;1.00;;
20397;SDS011;10358;49.590;11.030;2023-11-21T01:29:44;4.63;;;1.23;;
20397;SDS011;10358;49.590;11.030;2023-11-21T01:32:10;4.07;;;1.20;;
20397;SDS011;10358;49.590;11.030;2023-11-21T01:34:36;3.33;;;1.13;;
20397;SDS011;10358;49.590;11.030;2023-11-21T01:37:01;5.13;;;1.20;;
20397;SDS011;10358;49.590;11.030;2023-11-21T01:39:29;4.13;;;1.40;;
20397;SDS011;10358;49.590;11.030;2023-11-21T01:41:55;3.33;;;1.40;;
20397;SDS011;10358;49.590;11.030;2023-11-21T01:44:23;6.70;;;1.50;;
20397;SDS011;10358;49.590;11.030;2023-11-21T01:46:49;4.43;;;1.53;;
20397;SDS011;10358;49.590;11.030;2023-11-21T01:49:15;3.80;;;1.57;;
20397;SDS011;10358;49.590;11.030;2023-11-21T01:51:43;5.87;;;1.53;;
20397;SDS011;10358;49.590;11.030;2023-11-21T01:54:14;4.27;;;1.40;;
20397;SDS011;10358;49.590;11.030;2023-11-21T01:56:42;5.47;;;2.03;;
20397;SDS011;10358;49.590;11.030;2023-11-21T01:59:09;7.13;;;1.77;;
20397;SDS011;10358;49.590;11.030;2023-11-21T02:01:36;6.30;;;1.77;;
20397;SDS011;10358;49.590;11.030;2023-11-21T02:04:02;6.37;;;2.03;;
20397;SDS011;10358;49.590;11.030;2023-11-21T02:06:28;4.97;;;2.33;;
20397;SDS011;10358;49.590;11.030;2023-11-21T02:08:56;5.87;;;2.00;;
20397;SDS011;10358;49.590;11.030;2023-11-21T02:11:21;7.50;;;2.00;;
20397;SDS011;10358;49.590;11.030;2023-11-21T02:13:47;5.53;;;2.20;;
20397;SDS011;10358;49.590;11.030;2023-11-21T02:16:15;5.63;;;2.20;;
20397;SDS011;10358;49.590;11.030;2023-11-21T02:18:40;5.77;;;2.40;;
20397;SDS011;10358;49.590;11.030;2023-11-21T02:21:06;5.37;;;2.10;;
20397;SDS011;10358;49.590;11.030;2023-11-21T02:23:32;6.97;;;2.23;;
20397;SDS011;10358;49.590;11.030;2023-11-21T02:25:58;7.27;;;1.93;;
20397;SDS011;10358;49.590;11.030;2023-11-21T02:28:24;5.07;;;1.90;;
20397;SDS011;10358;49.590;11.030;2023-11-21T02:30:52;5.63;;;1.63;;
20397;SDS011;10358;49.590;11.030;2023-11-21T02:33:21;6.47;;;2.00;;
20397;SDS011;10358;49.590;11.030;2023-11-21T02:35:46;24.30;;;9.63;;
20397;SDS011;10358;49.590;11.030;2023-11-21T02:38:12;5.70;;;3.17;;
20397;SDS011;10358;49.590;11.030;2023-11-21T02:40:38;4.57;;;2.60;;
20397;SDS011;10358;49.590;11.030;2023-11-21T02:43:04;8.63;;;2.23;;
20397;SDS011;10358;49.590;11.030;2023-11-21T02:45:31;4.87;;;1.60;;
20397;SDS011;10358;49.590;11.030;2023-11-21T02:47:56;5.83;;;1.63;;
20397;SDS011;10358;49.590;11.030;2023-11-21T02:50:22;5.23;;;2.07;;
20397;SDS011;10358;49.590;11.030;2023-11-21T02:52:48;4.87;;;1.77;;
20397;SDS011;10358;49.590;11.030;2023-11-21T02:55:14;5.47;;;2.10;;
20397;SDS011;10358;49.590;11.030;2023-11-21T02:57:39;6.47;;;2.13;;
20397;SDS011;10358;49.590;11.030;2023-11-21T03:00:05;3.93;;;1.90;;
20397;SDS011;10358;49.590;11.030;2023-11-21T03:02:33;5.23;;;2.20;;
20397;SDS011;10358;49.590;11.030;2023-11-21T03:05:03;9.23;;;1.97;;
20397;SDS011;10358;49.590;11.030;2023-11-21T03:07:30;6.13;;;2.07;;
20397;SDS011;10358;49.590;11.030;2023-11-21T03:09:55;6.83;;;1.90;;
20397;SDS011;10358;49.590;11.030;2023-11-21T03:12:21;8.67;;;2.23;;
20397;SDS011;10358;49.590;11.030;2023-11-21T03:14:46;3.63;;;1.80;;
20397;SDS011;10358;49.590;11.030;2023-11-21T03:17:12;3.60;;;1.83;;
20397;SDS011;10358;49.590;11.030;2023-11-21T03:19:40;49.17;;;25.77;;
20397;SDS011;10358;49.590;11.030;2023-11-21T03:22:06;19.47;;;9.87;;
20397;SDS011;10358;49.590;11.030;2023-11-21T03:24:33;8.00;;;4.30;;
20397;SDS011;10358;49.590;11.030;2023-11-21T03:26:59;7.53;;;3.27;;
20397;SDS011;10358;49.590;11.030;2023-11-21T03:29:25;4.70;;;2.67;;
20397;SDS011;10358;49.590;11.030;2023-11-21T03:31:51;4.37;;;2.17;;
20397;SDS011;10358;49.590;11.030;2023-11-21T03:34:19;8.53;;;2.47;;
20397;SDS011;10358;49.590;11.030;2023-11-21T03:36:49;8.70;;;4.10;;
20397;SDS011;10358;49.590;11.030;2023-11-21T03:39:14;9.53;;;4.27;;
20397;SDS011;10358;49.590;11.030;2023-11-21T03:41:40;8.00;;;3.40;;
20397;SDS011;10358;49.590;11.030;2023-11-21T03:44:06;8.73;;;3.17;;
20397;SDS011;10358;49.590;11.030;2023-11-21T03:46:31;6.90;;;3.37;;
20397;SDS011;10358;49.590;11.030;2023-11-21T03:48:57;6.63;;;3.07;;
20397;SDS011;10358;49.590;11.030;2023-11-21T03:51:22;7.63;;;3.33;;
20397;SDS011;10358;49.590;11.030;2023-11-21T03:53:48;9.43;;;3.70;;
20397;SDS011;10358;49.590;11.030;2023-11-21T03:56:14;10.77;;;3.23;;
20397;SDS011;10358;49.590;11.030;2023-11-21T03:58:39;7.03;;;2.70;;
20397;SDS011;10358;49.590;11.030;2023-11-21T04:01:05;3.80;;;2.30;;
20397;SDS011;10358;49.590;11.030;2023-11-21T04:03:31;6.77;;;2.37;;
20397;SDS011;10358;49.590;11.030;2023-11-21T04:05:56;5.57;;;2.30;;
20397;SDS011;10358;49.590;11.030;2023-11-21T04:08:22;6.97;;;2.20;;
20397;SDS011;10358;49.590;11.030;2023-11-21T04:10:47;7.20;;;2.57;;
20397;SDS011;10358;49.590;11.030;2023-11-21T04:13:13;5.33;;;2.20;;
20397;SDS011;10358;49.590;11.030;2023-11-21T04:15:39;6.30;;;2.20;;
20397;SDS011;10358;49.590;11.030;2023-11-21T04:18:05;5.93;;;1.90;;
20397;SDS011;10358;49.590;11.030;2023-11-21T04:20:30;8.13;;;2.43;;
20397;SDS011;10358;49.590;11.030;2023-11-21T04:22:56;4.00;;;2.23;;
20397;SDS011;10358;49.590;11.030;2023-11-21T04:25:21;5.40;;;2.13;;
20397;SDS011;10358;49.590;11.030;2023-11-21T04:27:48;9.27;;;2.00;;
20397;SDS011;10358;49.590;11.030;2023-11-21T04:30:14;5.07;;;2.57;;
20397;SDS011;10358;49.590;11.030;2023-11-21T04:32:40;8.27;;;2.30;;
20397;SDS011;10358;49.590;11.030;2023-11-21T04:35:07;4.33;;;2.17;;
20397;SDS011;10358;49.590;11.030;2023-11-21T04:37:33;3.70;;;2.20;;
20397;SDS011;10358;49.590;11.030;2023-11-21T04:39:59;9.53;;;2.33;;
20397;SDS011;10358;49.590;11.030;2023-11-21T04:42:24;6.97;;;2.40;;
20397;SDS011;10358;49.590;11.030;2023-11-21T04:44:50;5.57;;;2.10;;
20397;SDS011;10358;49.590;11.030;2023-11-21T04:47:17;6.17;;;2.33;;
20397;SDS011;10358;49.590;11.030;2023-11-21T04:49:45;4.37;;;1.83;;
20397;SDS011;10358;49.590;11.030;2023-11-21T04:52:12;9.00;;;2.63;;
20397;SDS011;10358;49.590;11.030;2023-11-21T04:54:37;5.90;;;2.97;;
20397;SDS011;10358;49.590;11.030;2023-11-21T04:57:04;6.97;;;2.77;;
20397;SDS011;10358;49.590;11.030;2023-11-21T04:59:32;6.33;;;2.20;;
20397;SDS011;10358;49.590;11.030;2023-11-21T05:01:58;7.13;;;2.47;;
20397;SDS011;10358;49.590;11.030;2023-11-21T05:04:25;3.83;;;2.27;;
20397;SDS011;10358;49.590;11.030;2023-11-21T05:06:51;6.80;;;2.83;;
20397;SDS011;10358;49.590;11.030;2023-11-21T05:09:16;5.60;;;2.60;;
20397;SDS011;10358;49.590;11.030;2023-11-21T05:11:42;5.63;;;2.43;;
20397;SDS011;10358;49.590;11.030;2023-11-21T05:14:08;4.27;;;2.50;;
20397;SDS011;10358;49.590;11.030;2023-11-21T05:16:34;5.50;;;2.40;;
20397;SDS011;10358;49.590;11.030;2023-11-21T05:19:00;6.17;;;3.20;;
20397;SDS011;10358;49.590;11.030;2023-11-21T05:21:29;6.20;;;3.20;;
20397;SDS011;10358;49.590;11.030;2023-11-21T05:23:58;8.77;;;2.50;;
20397;SDS011;10358;49.590;11.030;2023-11-21T05:26:24;7.13;;;2.63;;
20397;SDS011;10358;49.590;11.030;2023-11-21T05:28:49;5.10;;;2.50;;
20397;SDS011;10358;49.590;11.030;2023-11-21T05:31:15;5.67;;;2.50;;
20397;SDS011;10358;49.590;11.030;2023-11-21T05:33:41;5.70;;;2.60;;
20397;SDS011;10358;49.590;11.030;2023-11-21T05:36:07;7.17;;;2.57;;
20397;SDS011;10358;49.590;11.030;2023-11-21T05:38:33;5.80;;;2.50;;
20397;SDS011;10358;49.590;11.030;2023-11-21T05:41:00;5.23;;;2.50;;
20397;SDS011;10358;49.590;11.030;2023-11-21T05:43:26;6.17;;;2.97;;
20397;SDS011;10358;49.590;11.030;2023-11-21T05:46:00;9.17;;;4.00;;
20397;SDS011;10358;49.590;11.030;2023-11-21T05:48:39;6.73;;;3.20;;
20397;SDS011;10358;49.590;11.030;2023-11-21T05:51:20;8.23;;;3.40;;
20397;SDS011;10358;49.590;11.030;2023-11-21T05:53:46;7.07;;;3.40;;
20397;SDS011;10358;49.590;11.030;2023-11-21T05:56:11;6.33;;;3.07;;
20397;SDS011;10358;49.590;11.030;2023-11-21T05:58:38;4.60;;;2.90;;
20397;SDS011;10358;49.590;11.030;2023-11-21T06:01:05;8.17;;;2.90;;
20397;SDS011;10358;49.590;11.030;2023-11-21T06:03:34;6.17;;;3.03;;
20397;SDS011;10358;49.590;11.030;2023-11-21T06:05:59;6.07;;;2.63;;
20397;SDS011;10358;49.590;11.030;2023-11-21T06:08:25;7.43;;;2.90;;
20397;SDS011;10358;49.590;11.030;2023-11-21T06:10:51;6.77;;;2.73;;
20397;SDS011;10358;49.590;11.030;2023-11-21T06:13:17;7.93;;;2.77;;
20397;SDS011;10358;49.590;11.030;2023-11-21T06:15:49;5.13;;;2.87;;
20397;SDS011;10358;49.590;11.030;2023-11-21T06:18:14;6.00;;;2.70;;
20397;SDS011;10358;49.590;11.030;2023-11-21T06:20:40;5.93;;;3.10;;
20397;SDS011;10358;49.590;11.030;2023-11-21T06:23:05;4.97;;;3.00;;
20397;SDS011;10358;49.590;11.030;2023-11-21T06:25:31;6.43;;;3.17;;
20397;SDS011;10358;49.590;11.030;2023-11-21T06:28:01;5.07;;;2.97;;
20397;SDS011;10358;49.590;11.030;2023-11-21T06:30:26;7.40;;;3.53;;
20397;SDS011;10358;49.590;11.030;2023-11-21T06:32:53;5.33;;;3.20;;
20397;SDS011;10358;49.590;11.030;2023-11-21T06:35:20;6.43;;;3.43;;
20397;SDS011;10358;49.590;11.030;2023-11-21T06:37:45;6.53;;;3.63;;
20397;SDS011;10358;49.590;11.030;2023-11-21T06:40:14;6.37;;;3.33;;
20397;SDS011;10358;49.590;11.030;2023-11-21T06:42:40;7.30;;;3.53;;
20397;SDS011;10358;49.590;11.030;2023-11-21T06:45:06;8.87;;;4.03;;
20397;SDS011;10358;49.590;11.030;2023-11-21T06:47:32;6.97;;;3.77;;
20397;SDS011;10358;49.590;11.030;2023-11-21T06:49:58;6.60;;;4.00;;
20397;SDS011;10358;49.590;11.030;2023-11-21T06:52:24;8.80;;;4.10;;
20397;SDS011;10358;49.590;11.030;2023-11-21T06:54:50;9.00;;;4.10;;
20397;SDS011;10358;49.590;11.030;2023-11-21T06:57:15;9.23;;;4.97;;
20397;SDS011;10358;49.590;11.030;2023-11-21T06:59:41;9.40;;;5.50;;
20397;SDS011;10358;49.590;11.030;2023-11-21T07:02:06;9.33;;;5.43;;
20397;SDS011;10358;49.590;11.030;2023-11-21T07:04:32;10.60;;;5.07;;
20397;SDS011;10358;49.590;11.030;2023-11-21T07:06:58;8.47;;;4.37;;
20397;SDS011;10358;49.590;11.030;2023-11-21T07:09:24;11.97;;;5.03;;
20397;SDS011;10358;49.590;11.030;2023-11-21T07:11:51;9.60;;;4.60;;
20397;SDS011;10358;49.590;11.030;2023-11-21T07:14:17;10.73;;;4.33;;
20397;SDS011;10358;49.590;11.030;2023-11-21T07:16:44;8.63;;;5.00;;
20397;SDS011;10358;49.590;11.030;2023-11-21T07:19:10;9.60;;;5.53;;
20397;SDS011;10358;49.590;11.030;2023-11-21T07:21:37;10.87;;;4.80;;
20397;SDS011;10358;49.590;11.030;2023-11-21T07:24:04;8.83;;;5.17;;
20397;SDS011;10358;49.590;11.030;2023-11-21T07:26:34;8.50;;;4.60;;
20397;SDS011;10358;49.590;11.030;2023-11-21T07:29:03;9.47;;;4.37;;
20397;SDS011;10358;49.590;11.030;2023-11-21T07:31:29;5.97;;;4.10;;
20397;SDS011;10358;49.590;11.030;2023-11-21T07:33:54;9.77;;;4.50;;
20397;SDS011;10358;49.590;11.030;2023-11-21T07:36:23;7.10;;;4.20;;
20397;SDS011;10358;49.590;11.030;2023-11-21T07:38:49;9.53;;;4.30;;
20397;SDS011;10358;49.590;11.030;2023-11-21T07:41:15;13.80;;;7.07;;
20397;SDS011;10358;49.590;11.030;2023-11-21T07:43:42;15.37;;;6.97;;
20397;SDS011;10358;49.590;11.030;2023-11-21T07:46:08;10.57;;;5.60;;
20397;SDS011;10358;49.590;11.030;2023-11-21T07:48:34;9.60;;;4.60;;
20397;SDS011;10358;49.590;11.030;2023-11-21T07:51:00;5.60;;;4.07;;
20397;SDS011;10358;49.590;11.030;2023-11-21T07:53:30;7.07;;;4.07;;
20397;SDS011;10358;49.590;11.030;2023-11-21T07:55:56;7.53;;;3.87;;
20397;SDS011;10358;49.590;11.030;2023-11-21T07:58:22;7.30;;;4.07;;
20397;SDS011;10358;49.590;11.030;2023-11-21T08:00:49;5.73;;;4.40;;
20397;SDS011;10358;49.590;11.030;2023-11-21T08:03:15;7.83;;;3.97;;
20397;SDS011;10358;49.590;11.030;2023-11-21T08:05:41;7.90;;;4.30;;
20397;SDS011;10358;49.590;11.030;2023-11-21T08:08:07;9.37;;;4.63;;
20397;SDS011;10358;49.590;11.030;2023-11-21T08:10:33;6.50;;;3.90;;
20397;SDS011;10358;49.590;11.030;2023-11-21T08:12:59;6.33;;;4.17;;
20397;SDS011;10358;49.590;11.030;2023-11-21T08:15:24;7.93;;;4.10;;
20397;SDS011;10358;49.590;11.030;2023-11-21T08:17:50;8.17;;;3.80;;
20397;SDS011;10358;49.590;11.030;2023-11-21T08:20:16;14.07;;;4.30;;
20397;SDS011;10358;49.590;11.030;2023-11-21T08:22:43;6.30;;;4.00;;
20397;SDS011;10358;49.590;11.030;2023-11-21T08:25:09;10.93;;;4.60;;
20397;SDS011;10358;49.590;11.030;2023-11-21T08:27:34;6.97;;;3.90;;
20397;SDS011;10358;49.590;11.030;2023-11-21T08:30:00;8.80;;;4.10;;
20397;SDS011;10358;49.590;11.030;2023-11-21T08:32:28;7.57;;;4.03;;
20397;SDS011;10358;49.590;11.030;2023-11-21T08:34:55;10.67;;;4.50;;
20397;SDS011;10358;49.590;11.030;2023-11-21T08:37:20;12.17;;;4.73;;
20397;SDS011;10358;49.590;11.030;2023-11-21T08:39:47;9.77;;;4.00;;
20397;SDS011;10358;49.590;11.030;2023-11-21T08:42:13;7.07;;;3.90;;
20397;SDS011;10358;49.590;11.030;2023-11-21T08:44:39;9.27;;;4.70;;
20397;SDS011;10358;49.590;11.030;2023-11-21T08:47:05;7.90;;;4.63;;
20397;SDS011;10358;49.590;11.030;2023-11-21T08:49:31;8.57;;;5.10;;
20397;SDS011;10358;49.590;11.030;2023-11-21T08:51:57;12.30;;;4.70;;
20397;SDS011;10358;49.590;11.030;2023-11-21T08:54:24;9.90;;;4.83;;
20397;SDS011;10358;49.590;11.030;2023-11-21T08:56:50;8.93;;;4.70;;
20397;SDS011;10358;49.590;11.030;2023-11-21T08:59:19;10.73;;;5.03;;
20397;SDS011;10358;49.590;11.030;2023-11-21T09:01:46;7.80;;;4.97;;
20397;SDS011;10358;49.590;11.030;2023-11-21T09:04:13;8.90;;;4.67;;
20397;SDS011;10358;49.590;11.030;2023-11-21T09:06:39;9.40;;;6.10;;
20397;SDS011;10358;49.590;11.030;2023-11-21T09:09:05;13.47;;;5.93;;
20397;SDS011;10358;49.590;11.030;2023-11-21T09:11:31;8.17;;;5.33;;
20397;SDS011;10358;49.590;11.030;2023-11-21T09:13:59;10.53;;;5.43;;
20397;SDS011;10358;49.590;11.030;2023-11-21T09:16:25;7.60;;;5.37;;
20397;SDS011;10358;49.590;11.030;2023-11-21T09:18:51;10.03;;;5.80;;
20397;SDS011;10358;49.590;11.030;2023-11-21T09:21:16;11.60;;;5.20;;
20397;SDS011;10358;49.590;11.030;2023-11-21T09:23:43;10.70;;;5.13;;
20397;SDS011;10358;49.590;11.030;2023-11-21T09:26:09;8.40;;;5.03;;
20397;SDS011;10358;49.590;11.030;2023-11-21T09:28:35;10.67;;;5.57;;
20397;SDS011;10358;49.590;11.030;2023-11-21T09:31:02;7.80;;;5.10;;
20397;SDS011;10358;49.590;11.030;2023-11-21T09:33:29;9.03;;;5.17;;
20397;SDS011;10358;49.590;11.030;2023-11-21T09:35:56;8.30;;;4.90;;
20397;SDS011;10358;49.590;11.030;2023-11-21T09:38:22;8.13;;;5.10;;
20397;SDS011;10358;49.590;11.030;2023-11-21T09:40:47;8.07;;;4.73;;
20397;SDS011;10358;49.590;11.030;2023-11-21T09:43:15;9.67;;;5.27;;
20397;SDS011;10358;49.590;11.030;2023-11-21T09:45:44;7.97;;;5.47;;
20397;SDS011;10358;49.590;11.030;2023-11-21T09:48:12;9.27;;;4.93;;
20397;SDS011;10358;49.590;11.030;2023-11-21T09:50:39;7.93;;;5.20;;
20397;SDS011;10358;49.590;11.030;2023-11-21T09:55:50;12.67;;;4.87;;
20397;SDS011;10358;49.590;11.030;2023-11-21T09:58:17;10.27;;;5.03;;
20397;SDS011;10358;49.590;11.030;2023-11-21T10:00:47;7.63;;;4.57;;
20397;SDS011;10358;49.590;11.030;2023-11-21T10:03:14;7.30;;;4.60;;
20397;SDS011;10358;49.590;11.030;2023-11-21T10:05:41;8.13;;;5.00;;
20397;SDS011;10358;49.590;11.030;2023-11-21T10:08:08;10.07;;;4.93;;
20397;SDS011;10358;49.590;11.030;2023-11-21T10:10:35;6.70;;;4.30;;
20397;SDS011;10358;49.590;11.030;2023-11-21T10:13:13;7.50;;;5.10;;
20397;SDS011;10358;49.590;11.030;2023-11-21T10:15:41;7.83;;;4.77;;
20397;SDS011;10358;49.590;11.030;2023-11-21T10:18:13;8.60;;;5.00;;
20397;SDS011;10358;49.590;11.030;2023-11-21T10:20:40;7.37;;;5.53;;
20397;SDS011;10358;49.590;11.030;2023-11-21T10:23:05;8.20;;;4.67;;
20397;SDS011;10358;49.590;11.030;2023-11-21T10:25:32;7.03;;;4.23;;
20397;SDS011;10358;49.590;11.030;2023-11-21T10:27:59;5.97;;;4.03;;
20397;SDS011;10358;49.590;11.030;2023-11-21T10:30:35;7.03;;;4.70;;
20397;SDS011;10358;49.590;11.030;2023-11-21T10:33:03;6.53;;;4.20;;
20397;SDS011;10358;49.590;11.030;2023-11-21T10:35:39;8.90;;;4.70;;
20397;SDS011;10358;49.590;11.030;2023-11-21T10:38:07;6.83;;;4.60;;
20397;SDS011;10358;49.590;11.030;2023-11-21T10:40:38;6.10;;;4.40;;
20397;SDS011;10358;49.590;11.030;2023-11-21T10:43:07;7.03;;;4.20;;
20397;SDS011;10358;49.590;11.030;2023-11-21T10:45:43;10.07;;;4.70;;
20397;SDS011;10358;49.590;11.030;2023-11-21T10:48:09;6.03;;;4.53;;
20397;SDS011;10358;49.590;11.030;2023-11-21T10:50:38;8.20;;;4.10;;
20397;SDS011;10358;49.590;11.030;2023-11-21T10:53:04;6.23;;;4.53;;
20397;SDS011;10358;49.590;11.030;2023-11-21T10:55:30;7.63;;;4.20;;
20397;SDS011;10358;49.590;11.030;2023-11-21T10:58:01;9.37;;;5.00;;
20397;SDS011;10358;49.590;11.030;2023-11-21T11:00:29;5.77;;;4.40;;
20397;SDS011;10358;49.590;11.030;2023-11-21T11:02:56;7.67;;;4.47;;
20397;SDS011;10358;49.590;11.030;2023-11-21T11:05:24;9.10;;;4.80;;
20397;SDS011;10358;49.590;11.030;2023-11-21T11:07:51;9.30;;;4.83;;
20397;SDS011;10358;49.590;11.030;2023-11-21T11:10:27;6.83;;;4.67;;
20397;SDS011;10358;49.590;11.030;2023-11-21T11:12:54;9.07;;;5.10;;
20397;SDS011;10358;49.590;11.030;2023-11-21T11:15:21;7.40;;;4.90;;
20397;SDS011;10358;49.590;11.030;2023-11-21T11:17:46;7.97;;;4.93;;
20397;SDS011;10358;49.590;11.030;2023-11-21T11:20:14;9.90;;;5.17;;
20397;SDS011;10358;49.590;11.030;2023-11-21T11:25:27;8.77;;;5.50;;
20397;SDS011;10358;49.590;11.030;2023-11-21T11:28:07;14.20;;;6.57;;
20397;SDS011;10358;49.590;11.030;2023-11-21T11:35:56;10.60;;;6.50;;
20397;SDS011;10358;49.590;11.030;2023-11-21T11:38:32;11.97;;;6.20;;
20397;SDS011;10358;49.590;11.030;2023-11-21T11:41:01;9.37;;;5.03;;
20397;SDS011;10358;49.590;11.030;2023-11-21T11:43:31;6.47;;;4.67;;
20397;SDS011;10358;49.590;11.030;2023-11-21T11:46:09;11.03;;;5.10;;
20397;SDS011;10358;49.590;11.030;2023-11-21T11:48:38;32.07;;;14.40;;
20397;SDS011;10358;49.590;11.030;2023-11-21T11:51:05;20.43;;;10.00;;
20397;SDS011;10358;49.590;11.030;2023-11-21T11:53:46;9.77;;;5.20;;
20397;SDS011;10358;49.590;11.030;2023-11-21T11:58:44;9.27;;;4.40;;
20397;SDS011;10358;49.590;11.030;2023-11-21T12:01:10;8.77;;;4.27;;
20397;SDS011;10358;49.590;11.030;2023-11-21T12:03:37;9.93;;;4.30;;
20397;SDS011;10358;49.590;11.030;2023-11-21T12:06:02;8.07;;;4.00;;
20397;SDS011;10358;49.590;11.030;2023-11-21T12:08:28;6.43;;;3.83;;
20397;SDS011;10358;49.590;11.030;2023-11-21T12:10:56;6.40;;;3.90;;
20397;SDS011;10358;49.590;11.030;2023-11-21T12:13:22;8.07;;;4.47;;
20397;SDS011;10358;49.590;11.030;2023-11-21T12:15:49;9.47;;;4.40;;
20397;SDS011;10358;49.590;11.030;2023-11-21T12:18:15;11.87;;;6.40;;
20397;SDS011;10358;49.590;11.030;2023-11-21T12:20:41;5.70;;;3.90;;
20397;SDS011;10358;49.590;11.030;2023-11-21T12:23:07;8.87;;;4.30;;
20397;SDS011;10358;49.590;11.030;2023-11-21T12:25:34;7.37;;;4.47;;
20397;SDS011;10358;49.590;11.030;2023-11-21T12:28:01;8.93;;;4.20;;
20397;SDS011;10358;49.590;11.030;2023-11-21T12:30:28;9.97;;;4.10;;
20397;SDS011;10358;49.590;11.030;2023-11-21T12:33:00;11.73;;;4.03;;
20397;SDS011;10358;49.590;11.030;2023-11-21T12:35:29;6.27;;;3.80;;
20397;SDS011;10358;49.590;11.030;2023-11-21T12:38:03;6.37;;;3.33;;
20397;SDS011;10358;49.590;11.030;2023-11-21T12:40:29;6.40;;;3.30;;
20397;SDS011;10358;49.590;11.030;2023-11-21T12:42:56;7.83;;;3.20;;
20397;SDS011;10358;49.590;11.030;2023-11-21T12:45:24;8.03;;;3.70;;
20397;SDS011;10358;49.590;11.030;2023-11-21T12:47:51;4.70;;;3.10;;
20397;SDS011;10358;49.590;11.030;2023-11-21T12:50:20;8.83;;;3.00;;
20397;SDS011;10358;49.590;11.030;2023-11-21T12:52:48;7.17;;;3.03;;
20397;SDS011;10358;49.590;11.030;2023-11-21T12:55:18;5.77;;;3.07;;
20397;SDS011;10358;49.590;11.030;2023-11-21T12:57:50;9.90;;;3.20;;
20397;SDS011;10358;49.590;11.030;2023-11-21T13:00:19;5.53;;;3.00;;
20397;SDS011;10358;49.590;11.030;2023-11-21T13:02:56;5.80;;;2.80;;
20397;SDS011;10358;49.590;11.030;2023-11-21T13:05:26;5.13;;;3.20;;
20397;SDS011;10358;49.590;11.030;2023-11-21T13:07:53;6.43;;;2.60;;
20397;SDS011;10358;49.590;11.030;2023-11-21T13:10:23;6.77;;;2.90;;
20397;SDS011;10358;49.590;11.030;2023-11-21T13:12:56;6.23;;;2.57;;
20397;SDS011;10358;49.590;11.030;2023-11-21T13:15:23;6.53;;;2.47;;
20397;SDS011;10358;49.590;11.030;2023-11-21T13:17:49;5.20;;;2.30;;
20397;SDS011;10358;49.590;11.030;2023-11-21T13:20:16;4.63;;;2.47;;
20397;SDS011;10358;49.590;11.030;2023-11-21T13:22:48;5.70;;;2.10;;
20397;SDS011;10358;49.590;11.030;2023-11-21T13:25:27;8.73;;;2.20;;
20397;SDS011;10358;49.590;11.030;2023-11-21T13:27:54;4.00;;;2.10;;
20397;SDS011;10358;49.590;11.030;2023-11-21T13:30:20;7.30;;;2.13;;
20397;SDS011;10358;49.590;11.030;2023-11-21T13:32:55;10.17;;;2.03;;
20397;SDS011;10358;49.590;11.030;2023-11-21T13:35:27;3.07;;;1.70;;
20397;SDS011;10358;49.590;11.030;2023-11-21T13:38:02;2.80;;;1.57;;
20397;SDS011;10358;49.590;11.030;2023-11-21T13:40:32;3.57;;;1.93;;
20397;SDS011;10358;49.590;11.030;2023-11-21T13:43:04;4.33;;;1.83;;
20397;SDS011;10358;49.590;11.030;2023-11-21T13:45:30;2.70;;;1.50;;
20397;SDS011;10358;49.590;11.030;2023-11-21T13:47:56;5.13;;;1.77;;
20397;SDS011;10358;49.590;11.030;2023-11-21T13:50:26;8.67;;;2.43;;
20397;SDS011;10358;49.590;11.030;2023-11-21T13:52:58;4.67;;;1.80;;
20397;SDS011;10358;49.590;11.030;2023-11-21T13:55:33;4.78;;;1.85;;
20397;SDS011;10358;49.590;11.030;2023-11-21T13:58:00;5.50;;;1.80;;
20397;SDS011;10358;49.590;11.030;2023-11-21T14:00:34;4.80;;;2.10;;
20397;SDS011;10358;49.590;11.030;2023-11-21T14:03:13;5.67;;;1.87;;
20397;SDS011;10358;49.590;11.030;2023-11-21T14:05:46;6.20;;;1.70;;
20397;SDS011;10358;49.590;11.030;2023-11-21T14:08:17;7.27;;;2.00;;
20397;SDS011;10358;49.590;11.030;2023-11-21T14:10:49;4.50;;;2.00;;
20397;SDS011;10358;49.590;11.030;2023-11-21T14:13:25;7.40;;;2.10;;
20397;SDS011;10358;49.590;11.030;2023-11-21T14:15:52;5.23;;;2.00;;
20397;SDS011;10358;49.590;11.030;2023-11-21T14:18:24;9.00;;;2.10;;
20397;SDS011;10358;49.590;11.030;2023-11-21T14:20:59;6.13;;;1.97;;
20397;SDS011;10358;49.590;11.030;2023-11-21T14:23:24;4.53;;;1.90;;
20397;SDS011;10358;49.590;11.030;2023-11-21T14:25:50;3.97;;;1.63;;
20397;SDS011;10358;49.590;11.030;2023-11-21T14:28:16;7.57;;;1.80;;
20397;SDS011;10358;49.590;11.030;2023-11-21T14:30:43;4.40;;;1.87;;
20397;SDS011;10358;49.590;11.030;2023-11-21T14:33:11;5.00;;;2.10;;
20397;SDS011;10358;49.590;11.030;2023-11-21T14:35:37;10.87;;;2.30;;
20397;SDS011;10358;49.590;11.030;2023-11-21T14:38:02;2.70;;;1.77;;
20397;SDS011;10358;49.590;11.030;2023-11-21T14:40:30;4.47;;;1.80;;
20397;SDS011;10358;49.590;11.030;2023-11-21T14:42:59;4.40;;;1.90;;
20397;SDS011;10358;49.590;11.030;2023-11-21T14:45:25;10.10;;;2.17;;
20397;SDS011;10358;49.590;11.030;2023-11-21T14:47:52;4.17;;;1.93;;